createdAt,value
2024-04-19T00:03:45.544Z,16.60
2024-04-19T00:07:49.249Z,18.90
2024-04-19T00:11:25.281Z,15.30
2024-04-19T00:15:28.009Z,19.20
2024-04-19T00:19:23.307Z,16.40
2024-04-19T00:23:06.746Z,17.70
2024-04-19T00:26:50.450Z,17.00
2024-04-19T00:30:38.181Z,14.50
2024-04-19T00:34:31.053Z,17.00
2024-04-19T00:38:25.231Z,16.90
2024-04-19T00:46:00.885Z,18.80
2024-04-19T00:49:45.040Z,16.80
2024-04-19T00:53:29.515Z,15.30
2024-04-19T00:57:34.056Z,14.20
2024-04-19T01:00:59.936Z,13.90
2024-04-19T01:04:26.600Z,13.10
2024-04-19T01:08:01.971Z,16.50
2024-04-19T01:11:25.494Z,16.80
2024-04-19T01:15:10.634Z,13.70
2024-04-19T01:18:43.090Z,17.20
2024-04-19T01:21:46.711Z,13.00
2024-04-19T01:25:29.230Z,16.70
2024-04-19T01:29:00.019Z,15.10
2024-04-19T01:32:43.673Z,15.40
2024-04-19T01:36:39.043Z,13.80
2024-04-19T01:40:15.538Z,17.40
2024-04-19T01:44:11.686Z,14.50
2024-04-19T01:47:40.697Z,15.90
2024-04-19T01:50:55.088Z,16.80
2024-04-19T01:54:32.142Z,16.20
2024-04-19T01:58:36.999Z,13.50
2024-04-19T02:02:09.094Z,15.70
2024-04-19T02:05:32.803Z,14.30
2024-04-19T02:09:35.185Z,12.50
2024-04-19T02:13:00.960Z,16.60
2024-04-19T02:16:31.765Z,15.30
2024-04-19T02:19:36.848Z,11.00
2024-04-19T02:23:20.377Z,13.00
2024-04-19T02:26:17.899Z,12.10
2024-04-19T02:30:03.006Z,14.90
2024-04-19T02:33:38.386Z,11.70
2024-04-19T02:37:17.693Z,12.70
2024-04-19T02:41:10.369Z,11.40
2024-04-19T02:45:02.859Z,12.50
2024-04-19T02:48:05.996Z,11.40
2024-04-19T02:51:59.115Z,10.40
2024-04-19T02:55:06.259Z,12.90
2024-04-19T02:57:52.232Z,11.20
2024-04-19T03:01:35.902Z,12.90
2024-04-19T03:04:59.570Z,10.10
2024-04-19T03:08:21.443Z,10.50
2024-04-19T03:11:31.411Z,9.60
2024-04-19T03:14:57.469Z,11.30
2024-04-19T03:18:51.797Z,9.80
2024-04-19T03:22:08.946Z,13.30
2024-04-19T03:25:42.192Z,10.60
2024-04-19T03:28:55.606Z,14.00
2024-04-19T03:32:29.974Z,10.80
2024-04-19T03:36:33.688Z,9.70
2024-04-19T03:39:34.274Z,8.80
2024-04-19T03:42:47.213Z,13.20
2024-04-19T03:46:20.711Z,8.60
2024-04-19T03:49:28.947Z,9.30
2024-04-19T03:52:57.503Z,11.50
2024-04-19T03:56:51.856Z,9.50
2024-04-19T04:00:24.000Z,12.10
2024-04-19T04:03:55.151Z,9.20
2024-04-19T04:07:14.395Z,12.00
2024-04-19T04:11:05.177Z,11.50
2024-04-19T04:14:37.187Z,13.20
2024-04-19T04:18:29.432Z,7.60
2024-04-19T04:21:55.005Z,11.00
2024-04-19T04:25:38.476Z,8.80
2024-04-19T04:29:20.457Z,10.50
2024-04-19T04:32:49.067Z,9.90
2024-04-19T04:36:51.126Z,12.10
2024-04-19T04:40:17.382Z,10.30
2024-04-19T04:43:20.520Z,11.60
2024-04-19T04:46:52.991Z,12.40
2024-04-19T04:50:52.786Z,13.20
2024-04-19T04:54:06.493Z,11.40
2024-04-19T04:57:20.850Z,8.30
2024-04-19T05:01:17.780Z,8.70
2024-04-19T05:04:33.524Z,8.60
2024-04-19T05:07:27.406Z,15.40
2024-04-19T05:11:12.410Z,11.80
2024-04-19T05:14:42.228Z,13.30
2024-04-19T05:18:02.997Z,8.40
2024-04-19T05:25:02.472Z,11.10
2024-04-19T05:28:42.051Z,8.30
2024-04-19T05:32:35.529Z,6.60
2024-04-19T05:36:18.983Z,13.80
2024-04-19T05:39:25.637Z,8.00
2024-04-19T05:43:00.189Z,8.80
2024-04-19T05:46:21.397Z,8.10
2024-04-19T05:49:24.675Z,9.90
2024-04-19T05:52:27.740Z,8.50
2024-04-19T05:55:30.952Z,12.20
2024-04-19T05:59:04.225Z,9.50
2024-04-19T06:02:17.715Z,10.20
2024-04-19T06:05:19.807Z,7.50
2024-04-19T06:08:13.701Z,12.80
2024-04-19T06:11:07.969Z,13.20
2024-04-19T06:14:24.074Z,10.60
2024-04-19T06:17:16.995Z,10.40
2024-04-19T06:23:28.465Z,8.00
2024-04-19T06:26:17.067Z,9.70
2024-04-19T06:29:05.563Z,8.50
2024-04-19T06:32:18.434Z,8.90
2024-04-19T06:35:24.603Z,7.10
2024-04-19T06:38:34.179Z,11.20
2024-04-19T06:41:38.252Z,9.40
2024-04-19T06:44:41.945Z,7.20
2024-04-19T06:47:45.101Z,7.10
2024-04-19T06:50:48.013Z,7.40
2024-04-19T06:53:42.392Z,8.20
2024-04-19T06:56:56.431Z,9.70
2024-04-19T07:00:32.734Z,8.90
2024-04-19T07:03:29.170Z,7.50
2024-04-19T07:06:30.988Z,6.10
2024-04-19T07:09:26.981Z,7.10
2024-04-19T07:12:21.432Z,8.60
2024-04-19T07:15:13.733Z,13.10
2024-04-19T07:18:16.814Z,10.60
2024-04-19T07:23:51.599Z,8.10
2024-04-19T07:26:57.593Z,8.90
2024-04-19T07:30:20.695Z,8.30
2024-04-19T07:33:06.892Z,9.20
2024-04-19T07:36:08.436Z,8.40
2024-04-19T07:39:04.190Z,7.90
2024-04-19T07:42:16.111Z,13.10
2024-04-19T07:45:28.267Z,8.00
2024-04-19T07:48:34.844Z,8.50
2024-04-19T07:51:30.107Z,11.50
2024-04-19T07:54:23.905Z,12.10
2024-04-19T07:57:15.806Z,8.40
2024-04-19T08:00:02.568Z,15.10
2024-04-19T08:03:07.275Z,7.70
2024-04-19T08:05:53.655Z,7.60
2024-04-19T08:08:39.194Z,12.50
2024-04-19T08:11:42.328Z,13.50
2024-04-19T08:14:32.571Z,11.50
2024-04-19T08:17:46.729Z,8.00
2024-04-19T08:20:52.303Z,10.10
2024-04-19T08:24:09.339Z,11.10
2024-04-19T08:27:25.164Z,11.70
2024-04-19T08:30:08.563Z,6.90
2024-04-19T08:33:00.537Z,14.00
2024-04-19T08:35:58.298Z,11.40
2024-04-19T08:38:53.199Z,9.00
2024-04-19T08:41:59.210Z,10.80
2024-04-19T08:45:05.684Z,8.00
2024-04-19T08:48:15.216Z,7.50
2024-04-19T08:51:26.415Z,6.90
2024-04-19T08:54:22.545Z,8.30
2024-04-19T08:57:31.408Z,10.60
2024-04-19T09:00:37.320Z,7.20
2024-04-19T09:03:20.545Z,6.20
2024-04-19T09:06:14.463Z,11.40
2024-04-19T09:09:00.739Z,8.80
2024-04-19T09:11:54.061Z,11.70
2024-04-19T09:14:40.005Z,8.10
2024-04-19T09:17:41.107Z,12.60
2024-04-19T09:20:45.784Z,12.60
2024-04-19T09:24:00.004Z,12.50
2024-04-19T09:27:14.202Z,13.50
2024-04-19T09:30:19.620Z,12.50
2024-04-19T09:33:02.475Z,9.30
2024-04-19T09:35:45.681Z,7.10
2024-04-19T09:38:52.510Z,9.50
2024-04-19T09:42:03.755Z,10.10
2024-04-19T09:44:53.495Z,8.80
2024-04-19T09:47:47.412Z,11.40
2024-04-19T09:50:34.197Z,8.60
2024-04-19T09:53:27.509Z,9.70
2024-04-19T09:56:50.665Z,7.40
2024-04-19T09:59:51.065Z,10.40
2024-04-19T10:02:54.137Z,13.70
2024-04-19T10:05:57.627Z,5.50
2024-04-19T10:09:43.855Z,8.70
2024-04-19T10:12:27.944Z,5.70
2024-04-19T10:15:58.112Z,5.90
2024-04-19T10:18:57.138Z,9.30
2024-04-19T10:21:53.107Z,8.10
2024-04-19T10:24:58.389Z,10.20
2024-04-19T10:28:08.060Z,13.10
2024-04-19T10:31:11.012Z,9.10
2024-04-19T10:34:17.280Z,8.80
2024-04-19T10:37:34.271Z,6.90
2024-04-19T10:40:21.229Z,7.00
2024-04-19T10:43:07.985Z,4.00
2024-04-19T10:45:52.808Z,3.20
2024-04-19T10:48:47.198Z,4.10
2024-04-19T10:51:30.360Z,6.00
2024-04-19T10:54:20.737Z,4.60
2024-04-19T10:57:08.137Z,6.70
2024-04-19T10:59:50.954Z,6.80
2024-04-19T11:02:43.031Z,4.30
2024-04-19T11:05:26.559Z,5.00
2024-04-19T11:08:19.260Z,6.70
2024-04-19T11:14:04.165Z,6.90
2024-04-19T11:17:00.857Z,8.20
2024-04-19T11:19:58.016Z,5.10
2024-04-19T11:23:09.813Z,7.50
2024-04-19T11:26:15.880Z,6.80
2024-04-19T11:29:12.563Z,6.90
2024-04-19T11:32:16.966Z,8.30
2024-04-19T11:35:11.753Z,6.90
2024-04-19T11:38:14.190Z,7.20
2024-04-19T11:41:20.008Z,5.40
2024-04-19T11:44:30.200Z,7.00
2024-04-19T11:47:24.274Z,6.50
2024-04-19T11:50:14.742Z,7.70
2024-04-19T11:52:57.534Z,6.40
2024-04-19T11:55:53.822Z,9.20
2024-04-19T11:59:08.076Z,7.80
2024-04-19T12:02:11.084Z,6.90
2024-04-19T12:04:54.028Z,7.20
2024-04-19T12:07:48.078Z,8.00
2024-04-19T12:10:48.764Z,6.20
2024-04-19T12:19:28.862Z,8.90
2024-04-19T12:22:24.239Z,7.90
2024-04-19T12:25:39.988Z,8.70
2024-04-19T12:28:32.145Z,9.90
2024-04-19T12:31:24.813Z,8.90
2024-04-19T12:34:18.528Z,11.00
2024-04-19T12:37:10.075Z,10.20
2024-04-19T12:40:09.249Z,7.30
2024-04-19T12:43:03.903Z,11.80
2024-04-19T12:45:51.046Z,10.20
2024-04-19T12:49:05.743Z,9.50
2024-04-19T12:51:58.629Z,10.60
2024-04-19T12:57:27.907Z,10.40
2024-04-19T13:00:31.109Z,7.20
2024-04-19T13:03:46.071Z,10.10
2024-04-19T13:06:39.177Z,7.90
2024-04-19T13:09:22.409Z,6.70
2024-04-19T13:12:28.768Z,5.70
2024-04-19T13:15:22.564Z,8.30
2024-04-19T13:18:33.185Z,6.00
2024-04-19T13:21:19.238Z,4.40
2024-04-19T13:24:32.268Z,7.10
2024-04-19T13:27:45.537Z,5.50
2024-04-19T13:30:31.005Z,10.70
2024-04-19T13:33:38.914Z,7.20
2024-04-19T13:36:40.945Z,11.70
2024-04-19T13:39:44.739Z,10.40
2024-04-19T13:43:01.730Z,10.20
2024-04-19T13:46:17.375Z,12.10
2024-04-19T13:49:16.610Z,10.60
2024-04-19T13:52:15.917Z,11.20
2024-04-19T13:55:09.459Z,9.60
2024-04-19T13:58:31.182Z,8.40
2024-04-19T14:01:58.260Z,9.30
2024-04-19T14:05:12.014Z,7.60
2024-04-19T14:08:14.478Z,9.20
2024-04-19T14:11:29.623Z,10.90
2024-04-19T14:14:12.751Z,9.60
2024-04-19T14:17:15.752Z,11.70
2024-04-19T14:20:17.508Z,9.90
2024-04-19T14:23:29.474Z,9.50
2024-04-19T14:26:59.118Z,11.90
2024-04-19T14:30:22.026Z,12.10
2024-04-19T14:33:23.853Z,11.70
2024-04-19T14:36:36.052Z,11.60
2024-04-19T14:40:09.996Z,11.40
2024-04-19T14:43:02.969Z,11.50
2024-04-19T14:45:53.401Z,10.40
2024-04-19T14:49:16.661Z,10.40
2024-04-19T14:52:20.829Z,11.40
2024-04-19T14:55:49.817Z,10.10
2024-04-19T14:58:39.999Z,11.00
2024-04-19T15:01:33.067Z,10.60
2024-04-19T15:04:35.620Z,11.40
2024-04-19T15:08:00.183Z,11.30
2024-04-19T15:11:14.636Z,10.50
2024-04-19T15:13:57.286Z,11.50
2024-04-19T15:16:49.182Z,11.00
2024-04-19T15:20:23.328Z,13.10
2024-04-19T15:23:08.713Z,11.40
2024-04-19T15:25:54.487Z,9.90
2024-04-19T15:31:31.848Z,7.60
2024-04-19T15:34:41.198Z,10.80
2024-04-19T15:37:42.824Z,7.20
2024-04-19T15:40:34.602Z,8.50
2024-04-19T15:43:20.138Z,7.90
2024-04-19T15:46:41.357Z,6.00
2024-04-19T15:49:50.934Z,6.20
2024-04-19T15:52:33.649Z,5.70
2024-04-19T15:55:21.736Z,4.80
2024-04-19T15:58:34.168Z,3.20
2024-04-19T16:01:46.409Z,3.50
2024-04-19T16:04:52.348Z,3.80
2024-04-19T16:08:19.505Z,3.90
2024-04-19T16:11:29.962Z,3.20
2024-04-19T16:14:50.806Z,4.40
2024-04-19T16:17:48.526Z,4.80
2024-04-19T16:20:31.903Z,5.30
2024-04-19T16:23:56.821Z,8.50
2024-04-19T16:27:19.447Z,5.90
2024-04-19T16:30:05.400Z,5.70
2024-04-19T16:33:13.643Z,6.60
2024-04-19T16:36:39.592Z,7.10
2024-04-19T16:40:14.607Z,8.40
2024-04-19T16:43:37.894Z,11.40
2024-04-19T16:50:02.379Z,8.50
2024-04-19T16:53:21.546Z,14.30
2024-04-19T16:56:17.992Z,11.80
2024-04-19T16:59:43.608Z,13.70
2024-04-19T17:02:40.991Z,12.90
2024-04-19T17:05:33.261Z,10.30
2024-04-19T17:08:36.316Z,12.40
2024-04-19T17:11:41.424Z,10.20
2024-04-19T17:14:26.398Z,10.70
2024-04-19T17:17:30.765Z,10.80
2024-04-19T17:21:00.937Z,8.20
2024-04-19T17:24:03.836Z,10.00
2024-04-19T17:26:46.691Z,6.90
2024-04-19T17:29:44.206Z,6.50
2024-04-19T17:33:03.790Z,7.30
2024-04-19T17:36:20.249Z,6.00
2024-04-19T17:39:43.400Z,4.90
2024-04-19T17:42:57.710Z,5.70
2024-04-19T17:45:41.662Z,4.20
2024-04-19T17:49:07.422Z,9.90
2024-04-19T17:51:50.724Z,5.40
2024-04-19T17:54:54.495Z,4.90
2024-04-19T17:58:20.699Z,6.50
2024-04-19T18:01:30.328Z,7.20
2024-04-19T18:04:34.112Z,9.20
2024-04-19T18:07:29.836Z,6.70
2024-04-19T18:10:32.749Z,10.00
2024-04-19T18:13:35.727Z,8.90
2024-04-19T18:16:48.664Z,8.40
2024-04-19T18:19:47.478Z,7.00
2024-04-19T18:22:39.395Z,11.50
2024-04-19T18:25:57.098Z,6.20
2024-04-19T18:29:10.243Z,8.00
2024-04-19T18:31:57.660Z,8.50
2024-04-19T18:35:03.970Z,8.70
2024-04-19T18:38:23.383Z,6.70
2024-04-19T18:42:08.658Z,7.60
2024-04-19T18:45:52.032Z,8.50
2024-04-19T18:48:42.313Z,11.30
2024-04-19T18:52:04.605Z,11.70
2024-04-19T18:55:18.711Z,8.00
2024-04-19T18:58:31.908Z,9.30
2024-04-19T19:01:45.964Z,9.80
2024-04-19T19:04:38.874Z,11.10
2024-04-19T19:10:55.963Z,10.50
2024-04-19T19:14:01.325Z,10.40
2024-04-19T19:17:04.418Z,8.40
2024-04-19T19:23:22.479Z,9.10
2024-04-19T19:26:35.448Z,13.60
2024-04-19T19:29:38.183Z,13.00
2024-04-19T19:33:11.483Z,9.70
2024-04-19T19:36:07.160Z,10.30
2024-04-19T19:39:30.710Z,11.20
2024-04-19T19:42:33.888Z,14.10
2024-04-19T19:48:53.184Z,8.90
2024-04-19T19:52:16.296Z,6.70
2024-04-19T19:55:31.254Z,5.70
2024-04-19T19:58:22.637Z,7.20
2024-04-19T20:01:26.888Z,7.60
2024-04-19T20:05:29.021Z,8.30
2024-04-19T20:08:46.438Z,7.40
2024-04-19T20:12:29.750Z,8.50
2024-04-19T20:15:32.919Z,6.90
2024-04-19T20:18:27.261Z,6.70
2024-04-19T20:22:21.988Z,7.90
2024-04-19T20:25:54.061Z,10.80
2024-04-19T20:29:20.096Z,9.70
2024-04-19T20:33:23.843Z,8.80
2024-04-19T20:36:43.405Z,8.50
2024-04-19T20:40:30.855Z,7.20
2024-04-19T20:43:34.342Z,8.20
2024-04-19T20:47:05.172Z,5.90
2024-04-19T20:50:41.902Z,9.00
2024-04-19T20:54:27.917Z,8.40
2024-04-19T20:58:11.199Z,9.50
2024-04-19T21:01:42.032Z,10.30
2024-04-19T21:05:09.402Z,9.90
2024-04-19T21:08:28.632Z,10.70
2024-04-19T21:12:24.775Z,9.00
2024-04-19T21:15:24.398Z,9.90
2024-04-19T21:18:43.105Z,9.30
2024-04-19T21:22:08.096Z,10.20
2024-04-19T21:25:31.539Z,10.40
2024-04-19T21:29:29.790Z,9.20
2024-04-19T21:32:52.007Z,11.10
2024-04-19T21:36:27.691Z,9.80
2024-04-19T21:39:36.526Z,11.10
2024-04-19T21:42:46.497Z,13.20
2024-04-19T21:46:09.527Z,12.60
2024-04-19T21:49:14.628Z,10.40
2024-04-19T21:52:58.160Z,12.10
2024-04-19T21:56:18.567Z,14.60
2024-04-19T21:59:05.579Z,12.90
2024-04-19T22:02:37.761Z,15.00
2024-04-19T22:06:15.544Z,17.00
2024-04-19T22:09:14.636Z,15.00
2024-04-19T22:12:30.627Z,16.70
2024-04-19T22:16:21.241Z,14.70
2024-04-19T22:19:46.234Z,17.20
2024-04-19T22:23:10.640Z,18.20
2024-04-19T22:26:34.070Z,17.60
2024-04-19T22:29:42.741Z,16.30
2024-04-19T22:33:00.505Z,19.00
2024-04-19T22:36:24.583Z,21.50
2024-04-19T22:39:41.987Z,17.50
2024-04-19T22:43:07.726Z,18.80
2024-04-19T22:46:25.473Z,21.10
2024-04-19T22:50:17.692Z,18.40
2024-04-19T22:53:50.984Z,20.60
2024-04-19T22:57:17.393Z,17.60
2024-04-19T23:00:50.631Z,21.20
2024-04-19T23:04:25.853Z,19.50
2024-04-19T23:08:12.261Z,20.40
2024-04-19T23:11:48.630Z,19.90
2024-04-19T23:15:35.005Z,21.40
2024-04-19T23:19:02.722Z,21.20
2024-04-19T23:22:25.702Z,21.90
2024-04-19T23:26:06.507Z,20.60
2024-04-19T23:29:50.904Z,21.50
2024-04-19T23:33:30.784Z,23.40
2024-04-19T23:37:14.475Z,25.30
2024-04-19T23:40:32.560Z,23.20
2024-04-19T23:43:51.830Z,21.10
2024-04-19T23:47:11.521Z,23.80
2024-04-19T23:50:55.048Z,21.20
2024-04-19T23:54:24.689Z,23.50
2024-04-19T23:58:00.100Z,26.80
